Ashcamp, Kentucky
Current Conditions -  °F | °C
As of 11:15 AM on Monday 26 Jan 2015 (Local Time) from KLNP Reporting Station
Overcast Overcast  
Wind Chill: 22°   Ceiling: 700
Heat Index: 32°   Visibility: 7mi
Dew Point: 32°   Wind: 15mph
Humidity: 100%   Direction: 290°WNW
Pressure: 29.72"   Gusts: 23mph
Location:  37.27°N, 82.43°W
Report Text: KLNP 261615Z AUTO 29013G20KT 7SM OVC007 00/00 A2972 RMK AO2
Loading
Personal Weather Stations






























Interactive Weather Map New forecast layout! Learn more

10-Day Weather Forecast

Advertisements
Track Severe Weather on mobile